sensor_id;sensor_type;location;lat;lon;timestamp;noise_LAeq;noise_LA_min;noise_LA_max;noise_LA01;noise_LA95
67310;Laerm;65444;51.438;5.982;2023-04-01T00:00:28;45.59;36.68;65.82;;
67310;Laerm;65444;51.438;5.982;2023-04-01T00:00:39;40.35;37.25;51.15;;
67310;Laerm;65444;51.438;5.982;2023-04-01T00:00:53;42.12;39.23;52.35;;
67310;Laerm;65444;51.438;5.982;2023-04-01T00:01:04;55.03;40.65;71.81;;
67310;Laerm;65444;51.438;5.982;2023-04-01T00:01:15;45.53;39.00;59.07;;
67310;Laerm;65444;51.438;5.982;2023-04-01T00:01:26;40.00;37.62;48.17;;
67310;Laerm;65444;51.438;5.982;2023-04-01T00:01:37;42.19;37.42;58.13;;
67310;Laerm;65444;51.438;5.982;2023-04-01T00:01:51;43.63;37.97;62.21;;
67310;Laerm;65444;51.438;5.982;2023-04-01T00:02:02;50.81;39.79;75.20;;
67310;Laerm;65444;51.438;5.982;2023-04-01T00:02:13;50.88;41.50;65.73;;
67310;Laerm;65444;51.438;5.982;2023-04-01T00:02:24;51.38;42.87;69.35;;
67310;Laerm;65444;51.438;5.982;2023-04-01T00:02:37;47.12;42.72;67.56;;
67310;Laerm;65444;51.438;5.982;2023-04-01T00:02:48;53.17;43.32;77.96;;
67310;Laerm;65444;51.438;5.982;2023-04-01T00:02:59;49.02;43.11;69.76;;
67310;Laerm;65444;51.438;5.982;2023-04-01T00:03:11;53.39;43.68;68.80;;
67310;Laerm;65444;51.438;5.982;2023-04-01T00:03:22;52.22;44.52;63.34;;
67310;Laerm;65444;51.438;5.982;2023-04-01T00:03:34;47.88;44.30;59.82;;
67310;Laerm;65444;51.438;5.982;2023-04-01T00:03:45;47.25;42.58;61.20;;
67310;Laerm;65444;51.438;5.982;2023-04-01T00:03:55;44.93;42.26;55.36;;
67310;Laerm;65444;51.438;5.982;2023-04-01T00:04:09;50.37;42.89;72.08;;
67310;Laerm;65444;51.438;5.982;2023-04-01T00:04:19;54.83;43.67;68.25;;
67310;Laerm;65444;51.438;5.982;2023-04-01T00:04:31;46.70;40.91;56.33;;
67310;Laerm;65444;51.438;5.982;2023-04-01T00:04:48;41.19;39.19;44.95;;
67310;Laerm;65444;51.438;5.982;2023-04-01T00:04:59;46.08;38.62;63.52;;
67310;Laerm;65444;51.438;5.982;2023-04-01T00:05:10;48.95;38.41;63.90;;
67310;Laerm;65444;51.438;5.982;2023-04-01T00:05:21;39.49;36.29;51.78;;
67310;Laerm;65444;51.438;5.982;2023-04-01T00:05:32;43.80;39.18;56.60;;
67310;Laerm;65444;51.438;5.982;2023-04-01T00:05:43;39.58;35.41;57.99;;
67310;Laerm;65444;51.438;5.982;2023-04-01T00:05:55;46.45;35.82;57.36;;
67310;Laerm;65444;51.438;5.982;2023-04-01T00:06:06;51.41;38.40;67.17;;
67310;Laerm;65444;51.438;5.982;2023-04-01T00:06:17;44.73;35.43;61.68;;
67310;Laerm;65444;51.438;5.982;2023-04-01T00:06:42;48.64;37.19;64.02;;
67310;Laerm;65444;51.438;5.982;2023-04-01T00:06:52;37.88;33.89;47.35;;
67310;Laerm;65444;51.438;5.982;2023-04-01T00:07:03;43.04;34.83;59.80;;
67310;Laerm;65444;51.438;5.982;2023-04-01T00:07:13;39.15;34.93;50.56;;
67310;Laerm;65444;51.438;5.982;2023-04-01T00:07:24;38.13;35.71;44.77;;
67310;Laerm;65444;51.438;5.982;2023-04-01T00:07:54;42.94;35.18;61.84;;
67310;Laerm;65444;51.438;5.982;2023-04-01T00:08:05;40.04;36.09;54.08;;
67310;Laerm;65444;51.438;5.982;2023-04-01T00:08:17;42.87;36.29;57.68;;
67310;Laerm;65444;51.438;5.982;2023-04-01T00:08:27;39.11;36.34;48.24;;
67310;Laerm;65444;51.438;5.982;2023-04-01T00:08:41;44.20;38.16;54.43;;
67310;Laerm;65444;51.438;5.982;2023-04-01T00:08:52;57.82;48.53;73.22;;
67310;Laerm;65444;51.438;5.982;2023-04-01T00:09:03;57.37;54.81;59.88;;
67310;Laerm;65444;51.438;5.982;2023-04-01T00:09:14;56.53;54.17;59.21;;
67310;Laerm;65444;51.438;5.982;2023-04-01T00:09:25;54.27;49.77;58.17;;
67310;Laerm;65444;51.438;5.982;2023-04-01T00:09:44;51.22;48.71;54.77;;
67310;Laerm;65444;51.438;5.982;2023-04-01T00:09:55;47.90;42.35;60.23;;
67310;Laerm;65444;51.438;5.982;2023-04-01T00:10:07;44.22;41.22;49.15;;
67310;Laerm;65444;51.438;5.982;2023-04-01T00:10:18;42.54;38.77;59.77;;
67310;Laerm;65444;51.438;5.982;2023-04-01T00:10:29;41.33;38.56;46.53;;
67310;Laerm;65444;51.438;5.982;2023-04-01T00:11:21;40.88;37.19;47.86;;
67310;Laerm;65444;51.438;5.982;2023-04-01T00:11:32;39.97;37.08;48.05;;
67310;Laerm;65444;51.438;5.982;2023-04-01T00:11:42;40.32;36.29;50.80;;
67310;Laerm;65444;51.438;5.982;2023-04-01T00:11:54;44.38;36.62;56.32;;
67310;Laerm;65444;51.438;5.982;2023-04-01T00:12:06;39.00;36.34;44.08;;
67310;Laerm;65444;51.438;5.982;2023-04-01T00:12:17;45.16;37.72;59.29;;
67310;Laerm;65444;51.438;5.982;2023-04-01T00:12:27;45.13;37.77;66.44;;
67310;Laerm;65444;51.438;5.982;2023-04-01T00:12:38;41.72;37.89;52.93;;
67310;Laerm;65444;51.438;5.982;2023-04-01T00:12:49;47.87;40.57;63.91;;
67310;Laerm;65444;51.438;5.982;2023-04-01T00:13:00;49.32;45.67;54.95;;
67310;Laerm;65444;51.438;5.982;2023-04-01T00:13:11;50.15;47.04;54.12;;
67310;Laerm;65444;51.438;5.982;2023-04-01T00:13:21;50.10;47.12;53.62;;
67310;Laerm;65444;51.438;5.982;2023-04-01T00:13:32;47.81;45.38;50.94;;
67310;Laerm;65444;51.438;5.982;2023-04-01T00:13:43;44.85;41.55;51.91;;
67310;Laerm;65444;51.438;5.982;2023-04-01T00:13:54;46.74;41.50;57.07;;
67310;Laerm;65444;51.438;5.982;2023-04-01T00:14:05;51.77;45.63;56.30;;
67310;Laerm;65444;51.438;5.982;2023-04-01T00:14:15;54.02;48.90;66.26;;
67310;Laerm;65444;51.438;5.982;2023-04-01T00:14:26;56.52;49.13;71.54;;
67310;Laerm;65444;51.438;5.982;2023-04-01T00:14:37;51.66;48.42;59.27;;
67310;Laerm;65444;51.438;5.982;2023-04-01T00:14:47;50.86;42.51;64.53;;
67310;Laerm;65444;51.438;5.982;2023-04-01T00:14:58;45.93;41.05;60.10;;
67310;Laerm;65444;51.438;5.982;2023-04-01T00:15:09;42.71;39.72;46.99;;
67310;Laerm;65444;51.438;5.982;2023-04-01T00:15:21;45.75;39.81;58.58;;
67310;Laerm;65444;51.438;5.982;2023-04-01T00:15:32;44.49;40.42;53.67;;
67310;Laerm;65444;51.438;5.982;2023-04-01T00:15:43;43.73;38.35;53.89;;
67310;Laerm;65444;51.438;5.982;2023-04-01T00:15:54;39.62;36.99;42.59;;
67310;Laerm;65444;51.438;5.982;2023-04-01T00:16:05;38.66;36.83;43.54;;
67310;Laerm;65444;51.438;5.982;2023-04-01T00:16:16;38.43;35.94;46.80;;
67310;Laerm;65444;51.438;5.982;2023-04-01T00:16:30;37.64;35.72;42.90;;
67310;Laerm;65444;51.438;5.982;2023-04-01T00:16:40;37.52;35.55;47.06;;
67310;Laerm;65444;51.438;5.982;2023-04-01T00:16:52;42.52;35.52;53.14;;
67310;Laerm;65444;51.438;5.982;2023-04-01T00:17:03;49.75;38.68;64.82;;
67310;Laerm;65444;51.438;5.982;2023-04-01T00:17:14;42.38;38.01;56.27;;
67310;Laerm;65444;51.438;5.982;2023-04-01T00:17:25;44.72;36.98;66.62;;
67310;Laerm;65444;51.438;5.982;2023-04-01T00:17:36;40.94;36.88;54.72;;
67310;Laerm;65444;51.438;5.982;2023-04-01T00:17:47;41.48;36.35;53.36;;
67310;Laerm;65444;51.438;5.982;2023-04-01T00:17:58;39.85;36.04;51.86;;
67310;Laerm;65444;51.438;5.982;2023-04-01T00:18:09;39.80;35.96;51.64;;
67310;Laerm;65444;51.438;5.982;2023-04-01T00:18:20;37.93;35.40;44.22;;
67310;Laerm;65444;51.438;5.982;2023-04-01T00:18:32;47.17;35.35;61.04;;
67310;Laerm;65444;51.438;5.982;2023-04-01T00:18:43;38.99;35.78;47.48;;
67310;Laerm;65444;51.438;5.982;2023-04-01T00:18:54;44.60;35.91;56.62;;
67310;Laerm;65444;51.438;5.982;2023-04-01T00:19:05;45.26;37.64;55.34;;
67310;Laerm;65444;51.438;5.982;2023-04-01T00:19:16;56.12;37.87;71.87;;
67310;Laerm;65444;51.438;5.982;2023-04-01T00:19:29;45.07;36.52;56.41;;
67310;Laerm;65444;51.438;5.982;2023-04-01T00:19:40;41.49;37.23;53.24;;
67310;Laerm;65444;51.438;5.982;2023-04-01T00:19:50;52.70;40.25;67.63;;
67310;Laerm;65444;51.438;5.982;2023-04-01T00:20:01;50.08;39.56;60.21;;
67310;Laerm;65444;51.438;5.982;2023-04-01T00:20:13;40.69;37.23;47.14;;
67310;Laerm;65444;51.438;5.982;2023-04-01T00:20:24;43.04;37.18;57.91;;
67310;Laerm;65444;51.438;5.982;2023-04-01T00:20:35;44.30;39.02;53.12;;
67310;Laerm;65444;51.438;5.982;2023-04-01T00:20:46;54.48;42.36;66.54;;
67310;Laerm;65444;51.438;5.982;2023-04-01T00:20:58;44.32;37.40;58.13;;
67310;Laerm;65444;51.438;5.982;2023-04-01T00:21:08;45.10;37.24;58.78;;
67310;Laerm;65444;51.438;5.982;2023-04-01T00:21:20;42.01;36.14;52.71;;
67310;Laerm;65444;51.438;5.982;2023-04-01T00:21:31;42.78;38.85;47.67;;
67310;Laerm;65444;51.438;5.982;2023-04-01T00:21:42;40.77;37.47;50.08;;
67310;Laerm;65444;51.438;5.982;2023-04-01T00:21:53;47.74;36.70;62.12;;
67310;Laerm;65444;51.438;5.982;2023-04-01T00:22:04;50.37;37.03;64.35;;
67310;Laerm;65444;51.438;5.982;2023-04-01T00:23:05;50.92;37.39;66.73;;
67310;Laerm;65444;51.438;5.982;2023-04-01T00:23:16;63.96;50.19;79.64;;
67310;Laerm;65444;51.438;5.982;2023-04-01T00:23:27;53.68;48.67;66.81;;
67310;Laerm;65444;51.438;5.982;2023-04-01T00:23:37;49.25;46.37;51.87;;
67310;Laerm;65444;51.438;5.982;2023-04-01T00:23:49;45.88;40.05;58.97;;
67310;Laerm;65444;51.438;5.982;2023-04-01T00:24:00;54.62;39.96;68.74;;
67310;Laerm;65444;51.438;5.982;2023-04-01T00:24:10;46.43;40.36;54.23;;
67310;Laerm;65444;51.438;5.982;2023-04-01T00:24:21;45.19;38.38;53.53;;
67310;Laerm;65444;51.438;5.982;2023-04-01T00:24:32;41.11;36.51;56.20;;
67310;Laerm;65444;51.438;5.982;2023-04-01T00:25:30;44.80;37.10;58.19;;
67310;Laerm;65444;51.438;5.982;2023-04-01T00:25:42;41.86;39.17;48.21;;
67310;Laerm;65444;51.438;5.982;2023-04-01T00:25:53;42.48;38.61;50.77;;
67310;Laerm;65444;51.438;5.982;2023-04-01T00:26:03;45.81;39.38;59.08;;
67310;Laerm;65444;51.438;5.982;2023-04-01T00:26:15;46.00;38.47;63.84;;
67310;Laerm;65444;51.438;5.982;2023-04-01T00:26:29;42.36;37.32;55.69;;
67310;Laerm;65444;51.438;5.982;2023-04-01T00:26:40;48.27;36.04;66.93;;
67310;Laerm;65444;51.438;5.982;2023-04-01T00:26:52;41.43;38.70;46.22;;
67310;Laerm;65444;51.438;5.982;2023-04-01T00:27:02;47.75;38.93;64.93;;
67310;Laerm;65444;51.438;5.982;2023-04-01T00:27:14;50.78;39.27;67.04;;
67310;Laerm;65444;51.438;5.982;2023-04-01T00:27:25;50.04;38.82;65.60;;
67310;Laerm;65444;51.438;5.982;2023-04-01T00:27:36;50.20;43.42;59.47;;
67310;Laerm;65444;51.438;5.982;2023-04-01T00:27:47;52.57;49.52;56.48;;
67310;Laerm;65444;51.438;5.982;2023-04-01T00:27:59;56.15;52.19;60.23;;
67310;Laerm;65444;51.438;5.982;2023-04-01T00:28:10;53.16;50.75;55.88;;
67310;Laerm;65444;51.438;5.982;2023-04-01T00:28:21;54.12;51.10;58.80;;
67310;Laerm;65444;51.438;5.982;2023-04-01T00:28:33;53.88;44.75;60.79;;
67310;Laerm;65444;51.438;5.982;2023-04-01T00:28:45;43.13;38.36;49.77;;
67310;Laerm;65444;51.438;5.982;2023-04-01T00:28:56;39.94;36.45;52.71;;
67310;Laerm;65444;51.438;5.982;2023-04-01T00:29:06;41.58;37.26;54.15;;
67310;Laerm;65444;51.438;5.982;2023-04-01T00:29:18;43.40;36.76;59.85;;
67310;Laerm;65444;51.438;5.982;2023-04-01T00:29:29;52.68;38.13;62.33;;
67310;Laerm;65444;51.438;5.982;2023-04-01T00:29:44;44.59;37.25;57.65;;
67310;Laerm;65444;51.438;5.982;2023-04-01T00:29:55;41.93;38.33;49.62;;
67310;Laerm;65444;51.438;5.982;2023-04-01T00:30:05;48.88;42.02;62.14;;
67310;Laerm;65444;51.438;5.982;2023-04-01T00:30:17;53.98;42.69;67.78;;
67310;Laerm;65444;51.438;5.982;2023-04-01T00:30:28;49.04;42.35;62.04;;
67310;Laerm;65444;51.438;5.982;2023-04-01T00:30:41;51.96;41.95;69.03;;
67310;Laerm;65444;51.438;5.982;2023-04-01T00:30:58;51.13;44.97;61.04;;
67310;Laerm;65444;51.438;5.982;2023-04-01T00:31:14;46.64;38.49;64.07;;
67310;Laerm;65444;51.438;5.982;2023-04-01T00:31:26;47.58;42.94;55.05;;
67310;Laerm;65444;51.438;5.982;2023-04-01T00:31:37;53.38;46.54;66.16;;
67310;Laerm;65444;51.438;5.982;2023-04-01T00:31:47;51.95;48.75;57.58;;
67310;Laerm;65444;51.438;5.982;2023-04-01T00:32:14;51.65;47.81;60.29;;
67310;Laerm;65444;51.438;5.982;2023-04-01T00:32:25;46.18;37.49;60.50;;
67310;Laerm;65444;51.438;5.982;2023-04-01T00:32:37;40.44;37.32;49.62;;
67310;Laerm;65444;51.438;5.982;2023-04-01T00:32:51;41.59;37.45;55.71;;
67310;Laerm;65444;51.438;5.982;2023-04-01T00:34:00;48.51;36.10;65.96;;
67310;Laerm;65444;51.438;5.982;2023-04-01T00:34:14;47.49;37.77;61.95;;
67310;Laerm;65444;51.438;5.982;2023-04-01T00:34:24;40.61;36.47;52.11;;
67310;Laerm;65444;51.438;5.982;2023-04-01T00:34:36;52.23;40.14;67.23;;
67310;Laerm;65444;51.438;5.982;2023-04-01T00:35:00;52.69;40.00;68.08;;
67310;Laerm;65444;51.438;5.982;2023-04-01T00:35:11;53.40;37.74;70.89;;
67310;Laerm;65444;51.438;5.982;2023-04-01T00:35:23;39.93;37.98;45.75;;
67310;Laerm;65444;51.438;5.982;2023-04-01T00:35:33;43.80;37.97;52.87;;
67310;Laerm;65444;51.438;5.982;2023-04-01T00:35:44;44.38;38.43;57.37;;
67310;Laerm;65444;51.438;5.982;2023-04-01T00:35:55;47.00;38.36;60.58;;
67310;Laerm;65444;51.438;5.982;2023-04-01T00:36:10;47.33;39.97;59.47;;
67310;Laerm;65444;51.438;5.982;2023-04-01T00:36:21;51.72;41.63;59.86;;
67310;Laerm;65444;51.438;5.982;2023-04-01T00:36:33;54.10;50.75;63.71;;
67310;Laerm;65444;51.438;5.982;2023-04-01T00:36:52;54.08;49.74;58.92;;
67310;Laerm;65444;51.438;5.982;2023-04-01T00:37:04;51.70;42.68;56.06;;
67310;Laerm;65444;51.438;5.982;2023-04-01T00:37:14;43.33;40.38;54.52;;
67310;Laerm;65444;51.438;5.982;2023-04-01T00:37:26;47.41;40.53;59.70;;
67310;Laerm;65444;51.438;5.982;2023-04-01T00:37:36;52.30;41.34;67.05;;
67310;Laerm;65444;51.438;5.982;2023-04-01T00:37:48;55.01;39.33;67.13;;
67310;Laerm;65444;51.438;5.982;2023-04-01T00:37:58;42.99;38.71;56.08;;
67310;Laerm;65444;51.438;5.982;2023-04-01T00:38:09;39.22;36.35;47.30;;
67310;Laerm;65444;51.438;5.982;2023-04-01T00:38:21;39.10;36.21;51.09;;
67310;Laerm;65444;51.438;5.982;2023-04-01T00:38:39;38.96;36.43;44.65;;
67310;Laerm;65444;51.438;5.982;2023-04-01T00:38:49;50.13;36.47;66.26;;
67310;Laerm;65444;51.438;5.982;2023-04-01T00:39:00;47.27;41.54;62.56;;
67310;Laerm;65444;51.438;5.982;2023-04-01T00:39:11;52.97;39.86;68.21;;
67310;Laerm;65444;51.438;5.982;2023-04-01T00:39:22;39.16;35.08;51.57;;
67310;Laerm;65444;51.438;5.982;2023-04-01T00:39:34;39.88;35.10;57.39;;
67310;Laerm;65444;51.438;5.982;2023-04-01T00:39:45;40.77;37.04;51.15;;
67310;Laerm;65444;51.438;5.982;2023-04-01T00:39:56;42.28;36.94;57.05;;
67310;Laerm;65444;51.438;5.982;2023-04-01T00:40:08;43.45;36.46;56.10;;
67310;Laerm;65444;51.438;5.982;2023-04-01T00:40:33;41.39;35.92;60.62;;
67310;Laerm;65444;51.438;5.982;2023-04-01T00:40:44;47.10;37.57;60.51;;
67310;Laerm;65444;51.438;5.982;2023-04-01T00:40:56;50.14;42.74;61.18;;
67310;Laerm;65444;51.438;5.982;2023-04-01T00:41:15;45.32;39.80;55.60;;
67310;Laerm;65444;51.438;5.982;2023-04-01T00:41:27;44.08;38.70;59.57;;
67310;Laerm;65444;51.438;5.982;2023-04-01T00:41:38;43.92;39.04;56.87;;
67310;Laerm;65444;51.438;5.982;2023-04-01T00:41:49;40.70;38.68;48.15;;
67310;Laerm;65444;51.438;5.982;2023-04-01T00:42:00;56.91;38.95;69.73;;
67310;Laerm;65444;51.438;5.982;2023-04-01T00:42:10;52.72;40.13;66.90;;
67310;Laerm;65444;51.438;5.982;2023-04-01T00:42:22;58.29;38.43;71.50;;
67310;Laerm;65444;51.438;5.982;2023-04-01T00:42:33;50.55;37.46;66.94;;
67310;Laerm;65444;51.438;5.982;2023-04-01T00:42:44;46.61;39.42;61.25;;
67310;Laerm;65444;51.438;5.982;2023-04-01T00:43:34;46.96;36.55;68.56;;
67310;Laerm;65444;51.438;5.982;2023-04-01T00:43:46;40.24;37.41;53.70;;
67310;Laerm;65444;51.438;5.982;2023-04-01T00:44:51;55.10;35.96;75.50;;
67310;Laerm;65444;51.438;5.982;2023-04-01T00:45:23;41.26;36.84;50.23;;
67310;Laerm;65444;51.438;5.982;2023-04-01T00:45:34;45.59;39.87;60.87;;
67310;Laerm;65444;51.438;5.982;2023-04-01T00:45:45;41.58;37.85;53.04;;
67310;Laerm;65444;51.438;5.982;2023-04-01T00:45:56;38.56;36.41;41.24;;
67310;Laerm;65444;51.438;5.982;2023-04-01T00:46:06;38.03;35.85;46.60;;
67310;Laerm;65444;51.438;5.982;2023-04-01T00:46:18;39.22;35.90;50.80;;
67310;Laerm;65444;51.438;5.982;2023-04-01T00:46:28;38.16;35.23;44.56;;
67310;Laerm;65444;51.438;5.982;2023-04-01T00:46:39;44.48;36.82;60.40;;
67310;Laerm;65444;51.438;5.982;2023-04-01T00:46:50;46.86;36.91;67.06;;
67310;Laerm;65444;51.438;5.982;2023-04-01T00:47:02;42.35;37.22;58.91;;
67310;Laerm;65444;51.438;5.982;2023-04-01T00:47:13;39.46;37.22;44.37;;
67310;Laerm;65444;51.438;5.982;2023-04-01T00:47:24;45.72;38.01;57.94;;
67310;Laerm;65444;51.438;5.982;2023-04-01T00:47:36;55.25;40.07;70.64;;
67310;Laerm;65444;51.438;5.982;2023-04-01T00:47:47;45.45;39.52;60.59;;
67310;Laerm;65444;51.438;5.982;2023-04-01T00:48:23;49.02;42.65;59.68;;
67310;Laerm;65444;51.438;5.982;2023-04-01T00:48:35;45.64;37.89;63.54;;
67310;Laerm;65444;51.438;5.982;2023-04-01T00:48:48;40.10;35.63;53.87;;
67310;Laerm;65444;51.438;5.982;2023-04-01T00:49:02;39.15;35.15;53.30;;
67310;Laerm;65444;51.438;5.982;2023-04-01T00:49:14;42.32;36.36;55.48;;
67310;Laerm;65444;51.438;5.982;2023-04-01T00:49:33;42.03;36.28;50.62;;
67310;Laerm;65444;51.438;5.982;2023-04-01T00:49:51;51.11;37.33;62.91;;
67310;Laerm;65444;51.438;5.982;2023-04-01T00:50:04;39.54;34.69;54.83;;
67310;Laerm;65444;51.438;5.982;2023-04-01T00:50:15;38.20;34.06;49.35;;
67310;Laerm;65444;51.438;5.982;2023-04-01T00:50:27;39.07;33.64;52.87;;
67310;Laerm;65444;51.438;5.982;2023-04-01T00:50:40;40.11;34.16;55.36;;
67310;Laerm;65444;51.438;5.982;2023-04-01T00:51:01;38.56;33.83;49.78;;
67310;Laerm;65444;51.438;5.982;2023-04-01T00:51:17;50.84;35.84;65.03;;
67310;Laerm;65444;51.438;5.982;2023-04-01T00:51:28;44.98;38.06;55.56;;
67310;Laerm;65444;51.438;5.982;2023-04-01T00:51:41;42.60;36.15;55.84;;
67310;Laerm;65444;51.438;5.982;2023-04-01T00:51:53;41.71;35.27;57.43;;
67310;Laerm;65444;51.438;5.982;2023-04-01T00:52:06;51.81;35.33;71.01;;
67310;Laerm;65444;51.438;5.982;2023-04-01T00:52:19;40.75;34.79;51.85;;
67310;Laerm;65444;51.438;5.982;2023-04-01T00:52:33;39.60;34.29;52.74;;
67310;Laerm;65444;51.438;5.982;2023-04-01T00:52:44;39.18;35.43;51.57;;
67310;Laerm;65444;51.438;5.982;2023-04-01T00:52:57;40.78;36.71;49.01;;
67310;Laerm;65444;51.438;5.982;2023-04-01T00:53:08;42.98;37.95;51.52;;
67310;Laerm;65444;51.438;5.982;2023-04-01T00:53:19;45.44;37.20;58.86;;
67310;Laerm;65444;51.438;5.982;2023-04-01T00:53:37;38.56;35.24;45.14;;
67310;Laerm;65444;51.438;5.982;2023-04-01T00:53:50;40.22;35.81;49.57;;
67310;Laerm;65444;51.438;5.982;2023-04-01T00:54:01;45.50;36.79;57.45;;
67310;Laerm;65444;51.438;5.982;2023-04-01T00:54:14;47.76;38.39;63.92;;
67310;Laerm;65444;51.438;5.982;2023-04-01T00:54:27;53.05;39.91;68.46;;
67310;Laerm;65444;51.438;5.982;2023-04-01T00:54:39;42.25;38.19;52.87;;
67310;Laerm;65444;51.438;5.982;2023-04-01T00:54:54;43.53;37.86;55.53;;
67310;Laerm;65444;51.438;5.982;2023-04-01T00:55:08;48.24;40.65;59.30;;
67310;Laerm;65444;51.438;5.982;2023-04-01T00:55:20;41.92;38.59;51.86;;
67310;Laerm;65444;51.438;5.982;2023-04-01T00:56:10;43.33;37.95;61.52;;
67310;Laerm;65444;51.438;5.982;2023-04-01T00:56:24;47.24;40.35;58.29;;
67310;Laerm;65444;51.438;5.982;2023-04-01T00:56:39;56.04;40.17;73.25;;
67310;Laerm;65444;51.438;5.982;2023-04-01T00:56:57;55.50;49.77;65.33;;
67310;Laerm;65444;51.438;5.982;2023-04-01T01:00:53;52.34;39.73;66.12;;
67310;Laerm;65444;51.438;5.982;2023-04-01T01:01:05;52.25;38.97;66.19;;
67310;Laerm;65444;51.438;5.982;2023-04-01T01:01:16;49.15;38.14;66.86;;
67310;Laerm;65444;51.438;5.982;2023-04-01T01:01:33;49.81;40.51;62.04;;
67310;Laerm;65444;51.438;5.982;2023-04-01T01:01:45;43.08;37.25;55.01;;
67310;Laerm;65444;51.438;5.982;2023-04-01T01:01:56;49.28;37.32;66.98;;
67310;Laerm;65444;51.438;5.982;2023-04-01T01:02:07;42.43;38.24;58.03;;
67310;Laerm;65444;51.438;5.982;2023-04-01T01:03:04;48.59;37.48;67.50;;
67310;Laerm;65444;51.438;5.982;2023-04-01T01:03:14;56.19;42.20;71.81;;
67310;Laerm;65444;51.438;5.982;2023-04-01T01:03:25;44.82;39.57;55.98;;
67310;Laerm;65444;51.438;5.982;2023-04-01T01:04:27;45.66;38.08;67.94;;
67310;Laerm;65444;51.438;5.982;2023-04-01T01:04:38;44.04;38.93;57.65;;
67310;Laerm;65444;51.438;5.982;2023-04-01T01:05:00;46.13;39.34;69.24;;
67310;Laerm;65444;51.438;5.982;2023-04-01T01:05:12;46.06;39.24;68.62;;
67310;Laerm;65444;51.438;5.982;2023-04-01T01:05:28;47.44;40.29;60.62;;
67310;Laerm;65444;51.438;5.982;2023-04-01T01:06:19;48.13;42.50;53.79;;
67310;Laerm;65444;51.438;5.982;2023-04-01T01:08:15;44.09;37.62;63.40;;
67310;Laerm;65444;51.438;5.982;2023-04-01T01:08:33;53.13;46.59;66.02;;
67310;Laerm;65444;51.438;5.982;2023-04-01T01:10:11;52.43;41.93;71.61;;
67310;Laerm;65444;51.438;5.982;2023-04-01T01:10:24;47.54;38.79;68.15;;
67310;Laerm;65444;51.438;5.982;2023-04-01T01:10:38;43.76;39.68;59.73;;
67310;Laerm;65444;51.438;5.982;2023-04-01T01:10:50;45.49;39.19;59.72;;
67310;Laerm;65444;51.438;5.982;2023-04-01T01:11:37;51.97;40.66;67.17;;
67310;Laerm;65444;51.438;5.982;2023-04-01T01:12:14;42.91;36.92;54.68;;
67310;Laerm;65444;51.438;5.982;2023-04-01T01:13:38;38.33;35.37;56.97;;
67310;Laerm;65444;51.438;5.982;2023-04-01T01:13:56;39.44;36.29;53.88;;
67310;Laerm;65444;51.438;5.982;2023-04-01T01:15:46;54.16;43.15;79.83;;
67310;Laerm;65444;51.438;5.982;2023-04-01T01:16:53;55.04;42.74;85.53;;
67310;Laerm;65444;51.438;5.982;2023-04-01T01:17:10;49.12;42.57;64.56;;
67310;Laerm;65444;51.438;5.982;2023-04-01T01:20:24;51.76;46.34;62.40;;
67310;Laerm;65444;51.438;5.982;2023-04-01T01:24:44;56.00;47.69;73.76;;
67310;Laerm;65444;51.438;5.982;2023-04-01T01:25:18;56.39;50.68;72.05;;
67310;Laerm;65444;51.438;5.982;2023-04-01T01:27:02;54.43;49.21;64.83;;
67310;Laerm;65444;51.438;5.982;2023-04-01T01:27:20;51.59;46.94;61.71;;
67310;Laerm;65444;51.438;5.982;2023-04-01T01:27:31;49.95;46.25;54.29;;
67310;Laerm;65444;51.438;5.982;2023-04-01T01:27:54;52.14;48.01;57.65;;
67310;Laerm;65444;51.438;5.982;2023-04-01T01:30:22;58.90;54.08;72.48;;
67310;Laerm;65444;51.438;5.982;2023-04-01T01:32:23;56.14;52.00;71.47;;
67310;Laerm;65444;51.438;5.982;2023-04-01T01:33:55;56.10;50.22;74.27;;
67310;Laerm;65444;51.438;5.982;2023-04-01T01:35:35;58.20;51.15;84.67;;
67310;Laerm;65444;51.438;5.982;2023-04-01T01:35:51;54.93;50.82;65.81;;
67310;Laerm;65444;51.438;5.982;2023-04-01T01:36:05;53.84;50.85;61.76;;
67310;Laerm;65444;51.438;5.982;2023-04-01T01:36:26;54.55;49.98;66.96;;
67310;Laerm;65444;51.438;5.982;2023-04-01T01:36:38;55.16;48.72;79.10;;
67310;Laerm;65444;51.438;5.982;2023-04-01T01:36:56;53.78;47.52;74.32;;
67310;Laerm;65444;51.438;5.982;2023-04-01T01:37:10;52.94;48.38;68.63;;
67310;Laerm;65444;51.438;5.982;2023-04-01T01:37:23;60.31;48.03;85.41;;
67310;Laerm;65444;51.438;5.982;2023-04-01T01:37:35;53.47;47.74;65.84;;
67310;Laerm;65444;51.438;5.982;2023-04-01T01:37:49;51.64;48.79;60.75;;
67310;Laerm;65444;51.438;5.982;2023-04-01T01:38:12;53.84;49.40;68.14;;
67310;Laerm;65444;51.438;5.982;2023-04-01T01:38:24;55.88;51.35;74.75;;
67310;Laerm;65444;51.438;5.982;2023-04-01T01:38:37;53.50;48.88;72.67;;
67310;Laerm;65444;51.438;5.982;2023-04-01T01:38:48;59.36;49.43;75.86;;
67310;Laerm;65444;51.438;5.982;2023-04-01T01:39:01;54.84;47.85;67.39;;
67310;Laerm;65444;51.438;5.982;2023-04-01T01:39:13;52.68;45.78;74.62;;
67310;Laerm;65444;51.438;5.982;2023-04-01T01:39:25;49.76;45.80;63.29;;
67310;Laerm;65444;51.438;5.982;2023-04-01T01:39:38;47.18;44.45;55.79;;
67310;Laerm;65444;51.438;5.982;2023-04-01T01:40:00;47.20;44.65;58.03;;
67310;Laerm;65444;51.438;5.982;2023-04-01T01:40:12;50.09;43.72;71.53;;
67310;Laerm;65444;51.438;5.982;2023-04-01T01:40:24;46.61;42.71;55.99;;
67310;Laerm;65444;51.438;5.982;2023-04-01T01:40:36;50.08;43.69;72.28;;
67310;Laerm;65444;51.438;5.982;2023-04-01T01:40:50;47.27;44.05;62.97;;
67310;Laerm;65444;51.438;5.982;2023-04-01T01:41:04;48.88;43.50;67.18;;
67310;Laerm;65444;51.438;5.982;2023-04-01T01:41:16;54.99;43.54;70.43;;
67310;Laerm;65444;51.438;5.982;2023-04-01T01:41:28;53.51;44.99;67.21;;
67310;Laerm;65444;51.438;5.982;2023-04-01T01:41:39;49.16;44.28;63.17;;
67310;Laerm;65444;51.438;5.982;2023-04-01T01:41:52;48.37;44.00;64.75;;
67310;Laerm;65444;51.438;5.982;2023-04-01T01:42:04;54.58;44.25;71.00;;
67310;Laerm;65444;51.438;5.982;2023-04-01T01:42:16;52.11;43.81;68.79;;
67310;Laerm;65444;51.438;5.982;2023-04-01T01:42:28;47.69;44.38;59.24;;
67310;Laerm;65444;51.438;5.982;2023-04-01T01:42:45;52.51;45.54;70.10;;
67310;Laerm;65444;51.438;5.982;2023-04-01T01:42:57;56.37;44.19;81.04;;
67310;Laerm;65444;51.438;5.982;2023-04-01T01:43:11;48.51;44.19;62.93;;
67310;Laerm;65444;51.438;5.982;2023-04-01T01:43:24;45.88;43.65;55.48;;
67310;Laerm;65444;51.438;5.982;2023-04-01T01:43:40;46.30;43.24;61.24;;
67310;Laerm;65444;51.438;5.982;2023-04-01T01:43:54;50.34;44.00;71.69;;
67310;Laerm;65444;51.438;5.982;2023-04-01T01:44:09;47.55;44.15;57.44;;
67310;Laerm;65444;51.438;5.982;2023-04-01T01:44:22;47.87;44.09;65.93;;
67310;Laerm;65444;51.438;5.982;2023-04-01T01:44:40;55.67;44.99;76.05;;
67310;Laerm;65444;51.438;5.982;2023-04-01T01:44:52;50.07;45.18;65.01;;
67310;Laerm;65444;51.438;5.982;2023-04-01T01:45:04;50.98;45.40;70.63;;
67310;Laerm;65444;51.438;5.982;2023-04-01T01:45:16;49.01;45.13;63.70;;
67310;Laerm;65444;51.438;5.982;2023-04-01T01:45:30;48.18;45.41;59.17;;
67310;Laerm;65444;51.438;5.982;2023-04-01T01:45:44;51.14;45.78;70.73;;
67310;Laerm;65444;51.438;5.982;2023-04-01T01:45:55;52.43;45.17;74.44;;